createdAt,value
2024-03-12T00:00:23.295Z,100418.78
2024-03-12T00:05:47.270Z,100418.69
2024-03-12T00:11:09.925Z,100417.92
2024-03-12T00:16:35.141Z,100422.30
2024-03-12T00:21:56.669Z,100418.69
2024-03-12T00:27:20.540Z,100423.91
2024-03-12T00:32:45.001Z,100421.25
2024-03-12T00:38:08.106Z,100415.07
2024-03-12T00:43:32.592Z,100409.93
2024-03-12T00:48:55.221Z,100413.45
2024-03-12T00:54:18.940Z,100405.62
2024-03-12T00:59:42.712Z,100409.17
2024-03-12T01:05:05.896Z,100402.95
2024-03-12T01:10:29.558Z,100404.86
2024-03-12T01:15:54.309Z,100400.48
2024-03-12T01:21:16.892Z,100408.66
2024-03-12T01:26:40.291Z,100401.62
2024-03-12T01:32:05.427Z,100405.23
2024-03-12T01:37:27.822Z,100406.09
2024-03-12T01:42:53.141Z,100406.17
2024-03-12T01:48:20.452Z,100409.76
2024-03-12T01:53:43.718Z,100406.17
2024-03-12T01:59:06.363Z,100399.97
2024-03-12T02:04:28.782Z,100399.11
2024-03-12T02:09:52.001Z,100391.98
2024-03-12T02:15:15.546Z,100395.53
2024-03-12T02:20:39.755Z,100391.06
2024-03-12T02:26:02.349Z,100398.95
2024-03-12T02:31:25.127Z,100386.50
2024-03-12T02:36:48.079Z,100385.64
2024-03-12T02:42:12.903Z,100390.02
2024-03-12T02:47:35.710Z,100389.92
2024-03-12T02:52:58.387Z,100389.83
2024-03-12T02:58:23.162Z,100381.75
2024-03-12T03:03:45.741Z,100382.55
2024-03-12T03:09:08.227Z,100384.26
2024-03-12T03:14:30.560Z,100383.30
2024-03-12T03:19:53.527Z,100383.21
2024-03-12T03:25:17.101Z,100385.87
2024-03-12T03:30:39.634Z,100386.64
2024-03-12T03:36:02.092Z,100377.89
2024-03-12T03:41:25.039Z,100377.80
2024-03-12T03:46:47.404Z,100370.75
2024-03-12T03:52:09.862Z,100373.32
2024-03-12T03:57:32.306Z,100375.98
2024-03-12T04:02:56.121Z,100376.75
2024-03-12T04:08:20.498Z,100375.98
2024-03-12T04:13:42.882Z,100374.94
2024-03-12T04:19:06.478Z,100374.18
2024-03-12T04:24:29.380Z,100377.60
2024-03-12T04:29:51.811Z,100374.88
2024-03-12T04:35:14.767Z,100377.54
2024-03-12T04:40:37.482Z,100373.98
2024-03-12T04:46:00.483Z,100382.87
2024-03-12T04:51:23.089Z,100389.05
2024-03-12T04:56:46.192Z,100394.28
2024-03-12T05:02:09.486Z,100398.75
2024-03-12T05:07:31.809Z,100397.89
2024-03-12T05:12:54.436Z,100398.66
2024-03-12T05:18:16.889Z,100408.27
2024-03-12T05:23:39.335Z,100407.41
2024-03-12T05:29:03.009Z,100402.08
2024-03-12T05:34:33.537Z,100399.41
2024-03-12T05:40:13.900Z,100406.36
2024-03-12T05:45:50.712Z,100403.70
2024-03-12T05:51:13.132Z,100408.01
2024-03-12T05:56:37.865Z,100404.39
2024-03-12T06:02:00.406Z,100411.24
2024-03-12T06:07:24.489Z,100411.05
2024-03-12T06:12:47.137Z,100407.47
2024-03-12T06:18:09.653Z,100405.38
2024-03-12T06:23:33.119Z,100412.16
2024-03-12T06:28:55.503Z,100418.05
2024-03-12T06:34:17.932Z,100423.13
2024-03-12T06:39:42.566Z,100427.60
2024-03-12T06:45:07.363Z,100438.83
2024-03-12T06:50:30.314Z,100448.38
2024-03-12T06:55:54.344Z,100444.47
2024-03-12T07:01:17.078Z,100447.89
2024-03-12T07:06:45.593Z,100448.84
2024-03-12T07:12:08.885Z,100447.98
2024-03-12T07:17:32.812Z,100455.82
2024-03-12T07:22:57.962Z,100457.44
2024-03-12T07:28:24.823Z,100454.58
2024-03-12T07:33:47.099Z,100453.63
2024-03-12T07:39:14.846Z,100452.77
2024-03-12T07:44:37.652Z,100451.55
2024-03-12T07:50:01.628Z,100452.72
2024-03-12T07:55:24.634Z,100460.32
2024-03-12T08:00:47.716Z,100454.23
2024-03-12T08:06:10.799Z,100454.98
2024-03-12T08:11:35.246Z,100460.05
2024-03-12T08:16:59.305Z,100456.73
2024-03-12T08:22:23.884Z,100466.73
2024-03-12T08:27:51.128Z,100467.39
2024-03-12T08:33:24.081Z,100466.75
2024-03-12T08:38:46.861Z,100474.92
2024-03-12T08:44:09.700Z,100485.05
2024-03-12T08:49:32.170Z,100485.80
2024-03-12T08:54:54.678Z,100482.93
2024-03-12T09:00:20.214Z,100486.75
2024-03-12T09:05:43.603Z,100486.16
2024-03-12T09:11:06.381Z,100486.95
2024-03-12T09:16:28.886Z,100492.58
2024-03-12T09:21:51.916Z,100483.94
2024-03-12T09:27:14.456Z,100487.93
2024-03-12T09:32:36.994Z,100492.01
2024-03-12T09:37:59.691Z,100481.45
2024-03-12T09:43:28.510Z,100487.44
2024-03-12T09:48:53.008Z,100491.72
2024-03-12T09:54:16.099Z,100486.86
2024-03-12T09:59:40.342Z,100485.89
2024-03-12T10:05:03.291Z,100484.34
2024-03-12T10:10:28.138Z,100484.29
2024-03-12T10:16:05.216Z,100482.95
2024-03-12T10:21:30.726Z,100489.52
2024-03-12T10:26:55.326Z,100485.99
2024-03-12T10:32:31.864Z,100489.38
2024-03-12T10:37:58.043Z,100492.41
2024-03-12T10:43:21.323Z,100499.04
2024-03-12T10:48:46.616Z,100495.45
2024-03-12T10:54:11.882Z,100488.56
2024-03-12T10:59:36.541Z,100503.25
2024-03-12T11:04:59.411Z,100495.24
2024-03-12T11:10:23.481Z,100494.55
2024-03-12T11:15:47.256Z,100495.08
2024-03-12T11:21:14.265Z,100502.55
2024-03-12T11:26:43.140Z,100497.91
2024-03-12T11:32:06.201Z,100496.20
2024-03-12T11:37:35.001Z,100501.23
2024-03-12T11:42:57.860Z,100503.11
2024-03-12T11:48:23.411Z,100506.57
2024-03-12T11:53:51.999Z,100512.23
2024-03-12T11:59:20.107Z,100516.23
2024-03-12T12:04:41.934Z,100527.17
2024-03-12T12:15:46.164Z,100516.95
2024-03-12T12:21:12.682Z,100526.17
2024-03-12T12:26:40.340Z,100532.56
2024-03-12T12:32:04.555Z,100529.38
2024-03-12T12:37:29.654Z,100531.83
2024-03-12T12:42:52.582Z,100527.45
2024-03-12T12:48:15.831Z,100532.73
2024-03-12T12:53:39.904Z,100535.19
2024-03-12T12:59:03.628Z,100542.14
2024-03-12T13:04:42.957Z,100547.70
2024-03-12T13:10:07.252Z,100545.37
2024-03-12T13:15:45.074Z,100548.27
2024-03-12T13:21:09.155Z,100548.38
2024-03-12T13:26:34.882Z,100557.90
2024-03-12T13:31:57.551Z,100564.77
2024-03-12T13:37:20.488Z,100567.30
2024-03-12T13:42:43.929Z,100569.13
2024-03-12T13:48:07.064Z,100568.08
2024-03-12T13:53:30.844Z,100569.34
2024-03-12T13:58:53.973Z,100571.06
2024-03-12T14:04:17.045Z,100587.34
2024-03-12T14:09:39.667Z,100573.55
2024-03-12T14:15:03.209Z,100579.54
2024-03-12T14:20:27.026Z,100580.28
2024-03-12T14:25:51.153Z,100588.42
2024-03-12T14:31:17.533Z,100588.42
2024-03-12T14:36:41.633Z,100589.50
2024-03-12T14:42:04.330Z,100586.67
2024-03-12T14:47:26.944Z,100592.69
2024-03-12T14:52:50.169Z,100586.89
2024-03-12T14:58:13.710Z,100595.13
2024-03-12T15:03:37.786Z,100600.59
2024-03-12T15:09:00.451Z,100592.11
2024-03-12T15:14:24.110Z,100599.63
2024-03-12T15:19:47.008Z,100597.14
2024-03-12T15:25:11.299Z,100594.57
2024-03-12T15:30:35.286Z,100610.81
2024-03-12T15:35:58.781Z,100610.03
2024-03-12T15:41:21.484Z,100608.21
2024-03-12T15:46:44.448Z,100619.13
2024-03-12T15:52:08.638Z,100619.55
2024-03-12T15:57:31.620Z,100616.20
2024-03-12T16:02:56.051Z,100620.44
2024-03-12T16:08:18.934Z,100628.09
2024-03-12T16:13:42.259Z,100631.94
2024-03-12T16:19:04.801Z,100646.27
2024-03-12T16:24:30.298Z,100640.44
2024-03-12T16:29:53.197Z,100646.95
2024-03-12T16:35:17.073Z,100641.13
2024-03-12T16:40:39.743Z,100643.05
2024-03-12T16:46:02.749Z,100648.77
2024-03-12T16:51:26.134Z,100654.33
2024-03-12T16:56:49.102Z,100653.57
2024-03-12T17:02:13.725Z,100664.53
2024-03-12T17:07:38.693Z,100657.67
2024-03-12T17:13:03.815Z,100667.67
2024-03-12T17:18:27.230Z,100665.20
2024-03-12T17:23:51.602Z,100670.05
2024-03-12T17:29:14.402Z,100678.17
2024-03-12T17:34:37.320Z,100676.55
2024-03-12T17:40:02.213Z,100684.83
2024-03-12T17:45:26.249Z,100685.78
2024-03-12T17:50:48.917Z,100688.45
2024-03-12T17:56:14.430Z,100691.13
2024-03-12T18:01:37.429Z,100691.13
2024-03-12T18:07:07.175Z,100700.20
2024-03-12T18:12:30.505Z,100698.48
2024-03-12T18:17:54.515Z,100696.86
2024-03-12T18:23:17.664Z,100706.95
2024-03-12T18:28:40.179Z,100702.77
2024-03-12T18:34:07.516Z,100700.09
2024-03-12T18:39:30.630Z,100708.87
2024-03-12T18:44:54.261Z,100708.50
2024-03-12T18:50:17.556Z,100715.06
2024-03-12T18:55:40.719Z,100710.08
2024-03-12T19:01:03.927Z,100713.89
2024-03-12T19:06:30.297Z,100713.23
2024-03-12T19:11:53.802Z,100718.73
2024-03-12T19:17:18.839Z,100719.78
2024-03-12T19:22:41.454Z,100714.53
2024-03-12T19:28:09.488Z,100710.31
2024-03-12T19:39:14.857Z,100707.58
2024-03-12T19:44:37.829Z,100711.39
2024-03-12T19:50:00.824Z,100725.08
2024-03-12T19:55:29.418Z,100718.02
2024-03-12T20:00:54.301Z,100724.03
2024-03-12T20:06:17.703Z,100714.91
2024-03-12T20:11:40.419Z,100734.45
2024-03-12T20:17:02.928Z,100725.75
2024-03-12T20:22:25.436Z,100726.79
2024-03-12T20:27:50.752Z,100732.31
2024-03-12T20:33:14.860Z,100740.32
2024-03-12T20:38:37.308Z,100742.98
2024-03-12T20:44:00.525Z,100742.28
2024-03-12T20:49:24.564Z,100741.18
2024-03-12T20:54:50.212Z,100741.18
2024-03-12T21:00:20.950Z,100740.98
2024-03-12T21:05:43.457Z,100740.80
2024-03-12T21:11:06.251Z,100736.20
2024-03-12T21:16:30.363Z,100731.78
2024-03-12T21:22:01.273Z,100739.85
2024-03-12T21:27:23.948Z,100733.94
2024-03-12T21:32:46.399Z,100735.94
2024-03-12T21:38:08.960Z,100729.80
2024-03-12T21:43:31.389Z,100737.80
2024-03-12T21:48:53.799Z,100737.05
2024-03-12T21:54:16.933Z,100731.89
2024-03-12T21:59:39.843Z,100740.23
2024-03-12T22:05:02.205Z,100745.51
2024-03-12T22:10:25.839Z,100739.98
2024-03-12T22:15:48.901Z,100747.72
2024-03-12T22:21:15.119Z,100751.66
2024-03-12T22:26:37.458Z,100751.79
2024-03-12T22:32:01.786Z,100756.20
2024-03-12T22:37:24.323Z,100760.62
2024-03-12T22:42:47.523Z,100758.50
2024-03-12T22:48:10.185Z,100764.46
2024-03-12T22:53:34.512Z,100756.00
2024-03-12T22:58:57.743Z,100769.39
2024-03-12T23:04:21.229Z,100767.84
2024-03-12T23:09:44.821Z,100764.15
2024-03-12T23:15:08.683Z,100771.11
2024-03-12T23:20:32.199Z,100767.59
2024-03-12T23:25:55.735Z,100761.48
2024-03-12T23:31:18.649Z,100772.43
2024-03-12T23:36:41.384Z,100771.11
2024-03-12T23:42:03.822Z,100777.62
2024-03-12T23:47:26.332Z,100775.66
2024-03-12T23:52:50.209Z,100783.42
2024-03-12T23:58:13.370Z,100778.23
